createdAt,value
2017-10-24T00:00:24.697Z,58.26
2017-10-24T00:01:25.329Z,58.84
2017-10-24T00:02:25.941Z,58.65
2017-10-24T00:03:26.575Z,58.65
2017-10-24T00:04:27.183Z,58.26
2017-10-24T00:05:27.822Z,58.55
2017-10-24T00:06:28.431Z,58.74
2017-10-24T00:07:29.034Z,58.07
2017-10-24T00:08:29.640Z,58.07
2017-10-24T00:09:30.244Z,58.07
2017-10-24T00:10:30.855Z,58.26
2017-10-24T00:11:31.458Z,58.07
2017-10-24T00:12:32.094Z,58.45
2017-10-24T00:13:32.705Z,58.65
2017-10-24T00:14:33.308Z,58.55
2017-10-24T00:15:33.914Z,58.36
2017-10-24T00:16:34.521Z,58.55
2017-10-24T00:17:35.128Z,58.55
2017-10-24T00:18:35.733Z,58.07
2017-10-24T00:19:36.338Z,58.07
2017-10-24T00:20:36.949Z,58.26
2017-10-24T00:21:37.553Z,58.26
2017-10-24T00:22:38.157Z,58.26
2017-10-24T00:23:38.763Z,58.17
2017-10-24T00:24:39.373Z,57.79
2017-10-24T00:25:39.976Z,58.26
2017-10-24T00:26:40.582Z,58.26
2017-10-24T00:27:41.190Z,58.26
2017-10-24T00:28:41.797Z,57.89
2017-10-24T00:29:42.434Z,58.07
2017-10-24T00:30:43.069Z,58.36
2017-10-24T00:31:43.676Z,58.17
2017-10-24T00:32:44.280Z,58.36
2017-10-24T00:33:44.892Z,58.26
2017-10-24T00:34:45.502Z,58.45
2017-10-24T00:35:46.109Z,58.45
2017-10-24T00:36:46.709Z,58.45
2017-10-24T00:37:47.319Z,58.36
2017-10-24T00:38:47.924Z,58.26
2017-10-24T00:39:48.526Z,58.26
2017-10-24T00:40:49.133Z,58.65
2017-10-24T00:41:49.769Z,58.55
2017-10-24T00:42:50.374Z,58.55
2017-10-24T00:43:50.981Z,58.65
2017-10-24T00:44:51.591Z,58.26
2017-10-24T00:45:52.196Z,58.07
2017-10-24T00:46:52.798Z,58.07
2017-10-24T00:47:53.408Z,58.17
2017-10-24T00:48:54.016Z,58.07
2017-10-24T00:49:54.621Z,58.07
2017-10-24T00:50:55.257Z,58.26
2017-10-24T00:51:55.871Z,58.36
2017-10-24T00:52:56.473Z,58.36
2017-10-24T00:53:57.079Z,58.17
2017-10-24T00:54:57.714Z,58.36
2017-10-24T00:55:58.320Z,58.36
2017-10-24T00:56:58.926Z,58.36
2017-10-24T00:57:59.532Z,58.26
2017-10-24T00:59:00.137Z,58.36
2017-10-24T01:00:00.774Z,58.36
2017-10-24T01:01:01.380Z,58.45
2017-10-24T01:02:02.018Z,58.55
2017-10-24T01:03:02.626Z,57.79
2017-10-24T01:04:03.233Z,57.70
2017-10-24T01:05:03.870Z,57.79
2017-10-24T01:06:04.476Z,58.45
2017-10-24T01:07:05.086Z,57.79
2017-10-24T01:08:05.687Z,57.79
2017-10-24T01:09:06.300Z,57.98
2017-10-24T01:10:06.910Z,57.89
2017-10-24T01:11:07.511Z,58.26
2017-10-24T01:12:08.123Z,57.89
2017-10-24T01:13:08.727Z,57.89
2017-10-24T01:14:09.334Z,57.98
2017-10-24T01:15:09.940Z,57.79
2017-10-24T01:16:10.547Z,57.98
2017-10-24T01:17:11.157Z,58.55
2017-10-24T01:18:11.769Z,58.45
2017-10-24T01:19:12.397Z,58.26
2017-10-24T01:20:13.002Z,57.89
2017-10-24T01:21:13.607Z,57.73
2017-10-24T01:22:14.220Z,57.79
2017-10-24T01:23:14.831Z,58.01
2017-10-24T01:24:15.431Z,58.01
2017-10-24T01:25:16.037Z,57.92
2017-10-24T01:26:16.642Z,57.92
2017-10-24T01:27:17.251Z,57.82
2017-10-24T01:28:17.854Z,57.64
2017-10-24T01:29:18.463Z,57.92
2017-10-24T01:30:19.073Z,57.82
2017-10-24T01:31:19.674Z,58.11
2017-10-24T01:32:20.279Z,58.11
2017-10-24T01:33:20.909Z,58.01
2017-10-24T01:34:21.499Z,57.92
2017-10-24T01:35:22.136Z,57.82
2017-10-24T01:36:22.771Z,57.92
2017-10-24T01:37:23.377Z,57.73
2017-10-24T01:38:24.032Z,58.01
2017-10-24T01:39:24.638Z,57.73
2017-10-24T01:40:25.244Z,57.82
2017-10-24T01:41:25.855Z,57.92
2017-10-24T01:42:26.458Z,57.73
2017-10-24T01:43:27.071Z,57.44
2017-10-24T01:44:27.714Z,57.35
2017-10-24T01:45:28.314Z,57.25
2017-10-24T01:46:28.928Z,57.16
2017-10-24T01:47:29.530Z,57.25
2017-10-24T01:48:30.134Z,57.25
2017-10-24T01:49:30.770Z,57.13
2017-10-24T01:50:31.383Z,57.16
2017-10-24T01:51:31.988Z,57.13
2017-10-24T01:52:32.593Z,57.44
2017-10-24T01:53:33.205Z,57.23
2017-10-24T01:54:33.808Z,57.16
2017-10-24T01:55:34.411Z,57.13
2017-10-24T01:56:35.017Z,57.16
2017-10-24T01:57:35.622Z,57.13
2017-10-24T01:58:36.228Z,57.04
2017-10-24T01:59:36.833Z,57.13
2017-10-24T02:00:37.440Z,57.32
2017-10-24T02:01:38.076Z,57.13
2017-10-24T02:02:38.681Z,57.23
2017-10-24T02:03:39.286Z,57.42
2017-10-24T02:04:39.895Z,57.13
2017-10-24T02:05:40.499Z,57.42
2017-10-24T02:06:41.109Z,57.51
2017-10-24T02:07:41.714Z,57.13
2017-10-24T02:08:42.352Z,57.32
2017-10-24T02:09:42.958Z,57.32
2017-10-24T02:10:43.564Z,57.32
2017-10-24T02:11:44.171Z,57.42
2017-10-24T02:12:44.781Z,57.32
2017-10-24T02:13:45.390Z,57.13
2017-10-24T02:14:45.997Z,57.13
2017-10-24T02:15:46.600Z,57.13
2017-10-24T02:16:47.206Z,57.23
2017-10-24T02:17:47.811Z,57.32
2017-10-24T02:18:48.427Z,57.04
2017-10-24T02:19:49.058Z,57.23
2017-10-24T02:20:49.666Z,57.60
2017-10-24T02:21:50.274Z,57.51
2017-10-24T02:22:50.882Z,57.13
2017-10-24T02:23:51.484Z,57.42
2017-10-24T02:24:52.096Z,57.70
2017-10-24T02:25:52.702Z,57.60
2017-10-24T02:26:53.340Z,57.98
2017-10-24T02:27:53.940Z,57.79
2017-10-24T02:28:54.544Z,57.92
2017-10-24T02:29:55.149Z,58.01
2017-10-24T02:30:55.761Z,57.60
2017-10-24T02:31:56.365Z,57.23
2017-10-24T02:32:56.970Z,57.25
2017-10-24T02:33:57.576Z,57.35
2017-10-24T02:34:58.182Z,57.32
2017-10-24T02:35:58.787Z,57.64
2017-10-24T02:36:59.392Z,57.35
2017-10-24T02:37:59.998Z,57.54
2017-10-24T02:39:00.606Z,57.64
2017-10-24T02:40:01.213Z,57.42
2017-10-24T02:41:01.819Z,57.25
2017-10-24T02:42:02.430Z,57.51
2017-10-24T02:43:03.032Z,57.06
2017-10-24T02:44:03.640Z,57.16
2017-10-24T02:45:04.245Z,57.32
2017-10-24T02:46:04.851Z,57.23
2017-10-24T02:47:05.496Z,57.54
2017-10-24T02:48:06.095Z,57.25
2017-10-24T02:49:06.700Z,57.32
2017-10-24T02:50:07.311Z,57.54
2017-10-24T02:51:07.924Z,57.42
2017-10-24T02:52:08.524Z,57.13
2017-10-24T02:53:09.130Z,57.51
2017-10-24T02:54:09.737Z,57.23
2017-10-24T02:55:10.342Z,57.23
2017-10-24T02:56:10.949Z,57.42
2017-10-24T02:57:11.555Z,57.42
2017-10-24T02:58:12.160Z,57.42
2017-10-24T02:59:12.765Z,57.54
2017-10-24T03:00:13.378Z,57.42
2017-10-24T03:01:13.981Z,57.64
2017-10-24T03:02:14.595Z,56.94
2017-10-24T03:03:15.198Z,57.13
2017-10-24T03:04:15.802Z,57.32
2017-10-24T03:05:16.408Z,57.32
2017-10-24T03:06:17.015Z,57.13
2017-10-24T03:07:17.621Z,57.60
2017-10-24T03:08:18.226Z,57.98
2017-10-24T03:09:18.839Z,57.79
2017-10-24T03:10:19.447Z,58.07
2017-10-24T03:11:20.086Z,57.89
2017-10-24T03:12:20.696Z,57.89
2017-10-24T03:13:21.303Z,57.98
2017-10-24T03:14:21.916Z,57.92
2017-10-24T03:15:22.514Z,57.92
2017-10-24T03:16:23.122Z,57.92
2017-10-24T03:17:23.736Z,57.35
2017-10-24T03:18:24.340Z,57.54
2017-10-24T03:19:24.945Z,57.25
2017-10-24T03:20:25.584Z,57.16
2017-10-24T03:21:26.221Z,57.64
2017-10-24T03:22:26.831Z,57.64
2017-10-24T03:23:27.435Z,57.16
2017-10-24T03:24:28.073Z,57.64
2017-10-24T03:25:28.685Z,57.54
2017-10-24T03:26:29.321Z,57.25
2017-10-24T03:27:29.930Z,57.25
2017-10-24T03:28:30.542Z,57.16
2017-10-24T03:29:31.146Z,57.44
2017-10-24T03:30:31.752Z,57.82
2017-10-24T03:31:32.362Z,57.44
2017-10-24T03:32:32.977Z,57.16
2017-10-24T03:33:33.605Z,57.35
2017-10-24T03:34:34.214Z,57.25
2017-10-24T03:35:34.824Z,57.25
2017-10-24T03:36:35.459Z,57.54
2017-10-24T03:37:36.066Z,57.54
2017-10-24T03:38:36.701Z,57.25
2017-10-24T03:39:37.305Z,57.54
2017-10-24T03:40:37.913Z,57.35
2017-10-24T03:41:38.517Z,57.06
2017-10-24T03:42:39.123Z,57.16
2017-10-24T03:43:39.737Z,57.16
2017-10-24T03:44:40.336Z,57.54
2017-10-24T03:45:40.941Z,57.64
2017-10-24T03:46:41.546Z,57.35
2017-10-24T03:47:42.159Z,57.16
2017-10-24T03:48:42.769Z,57.13
2017-10-24T03:49:43.372Z,57.16
2017-10-24T03:50:43.977Z,57.13
2017-10-24T03:51:44.582Z,57.25
2017-10-24T03:52:45.188Z,57.23
2017-10-24T03:53:45.794Z,57.82
2017-10-24T03:54:46.405Z,57.92
2017-10-24T03:55:47.042Z,58.01
2017-10-24T03:56:47.613Z,57.70
2017-10-24T03:57:48.219Z,57.89
2017-10-24T03:58:48.854Z,57.60
2017-10-24T03:59:49.459Z,57.89
2017-10-24T04:00:50.064Z,58.07
2017-10-24T04:01:50.704Z,57.60
2017-10-24T04:02:51.309Z,57.98
2017-10-24T04:03:51.913Z,58.36
2017-10-24T04:04:52.519Z,58.39
2017-10-24T04:05:53.123Z,58.20
2017-10-24T04:06:53.728Z,58.01
2017-10-24T04:07:54.363Z,58.01
2017-10-24T04:08:54.969Z,58.39
2017-10-24T04:09:55.574Z,58.20
2017-10-24T04:10:56.179Z,58.39
2017-10-24T04:11:56.791Z,58.11
2017-10-24T04:12:57.391Z,58.20
2017-10-24T04:13:58.035Z,58.58
2017-10-24T04:14:58.636Z,57.82
2017-10-24T04:15:59.247Z,58.11
2017-10-24T04:16:59.883Z,57.73
2017-10-24T04:18:00.490Z,58.01
2017-10-24T04:19:01.094Z,57.92
2017-10-24T04:20:01.706Z,57.73
2017-10-24T04:21:02.311Z,57.92
2017-10-24T04:22:02.919Z,57.64
2017-10-24T04:23:03.528Z,57.44
2017-10-24T04:24:04.132Z,57.92
2017-10-24T04:25:04.739Z,57.92
2017-10-24T04:26:05.346Z,57.54
2017-10-24T04:27:05.961Z,57.25
2017-10-24T04:28:06.564Z,57.25
2017-10-24T04:29:07.163Z,57.25
2017-10-24T04:30:07.769Z,57.25
2017-10-24T04:31:08.374Z,57.16
2017-10-24T04:32:08.993Z,57.35
2017-10-24T04:33:09.588Z,57.54
2017-10-24T04:34:10.225Z,57.64
2017-10-24T04:35:10.830Z,57.92
2017-10-24T04:36:11.468Z,58.01
2017-10-24T04:37:12.073Z,58.11
2017-10-24T04:38:12.678Z,57.73
2017-10-24T04:39:13.284Z,57.73
2017-10-24T04:40:13.887Z,57.82
2017-10-24T04:41:14.494Z,58.11
2017-10-24T04:42:15.106Z,57.82
2017-10-24T04:43:15.712Z,57.82
2017-10-24T04:44:16.317Z,57.82
2017-10-24T04:45:16.925Z,57.82
2017-10-24T04:46:17.529Z,57.82
2017-10-24T04:47:18.169Z,57.73
2017-10-24T04:48:18.770Z,57.82
2017-10-24T04:49:19.380Z,57.64
2017-10-24T04:50:19.990Z,57.64
2017-10-24T04:51:20.599Z,57.82
2017-10-24T04:52:21.203Z,57.73
2017-10-24T04:53:21.806Z,57.92
2017-10-24T04:54:22.411Z,57.73
2017-10-24T04:55:23.018Z,57.92
2017-10-24T04:56:23.629Z,58.11
2017-10-24T04:57:24.234Z,57.64
2017-10-24T04:58:24.848Z,57.25
2017-10-24T04:59:25.447Z,57.06
2017-10-24T05:00:26.059Z,57.16
2017-10-24T05:01:26.667Z,57.16
2017-10-24T05:02:27.274Z,57.25
2017-10-24T05:03:27.876Z,57.64
2017-10-24T05:04:28.485Z,57.35
2017-10-24T05:05:29.094Z,57.54
2017-10-24T05:06:29.703Z,57.64
2017-10-24T05:07:30.345Z,57.44
2017-10-24T05:08:30.959Z,57.64
2017-10-24T05:09:31.593Z,57.25
2017-10-24T05:10:32.208Z,57.54
2017-10-24T05:11:32.817Z,57.82
2017-10-24T05:12:33.421Z,57.92
2017-10-24T05:13:34.027Z,58.01
2017-10-24T05:14:34.633Z,58.01
2017-10-24T05:15:35.239Z,58.01
2017-10-24T05:16:35.876Z,57.82
2017-10-24T05:17:36.482Z,57.44
2017-10-24T05:18:37.087Z,57.44
2017-10-24T05:19:37.693Z,57.44
2017-10-24T05:20:38.298Z,57.44
2017-10-24T05:21:38.903Z,57.35
2017-10-24T05:22:39.510Z,57.64
2017-10-24T05:23:40.115Z,57.82
2017-10-24T05:24:40.728Z,57.92
2017-10-24T05:25:41.338Z,58.01
2017-10-24T05:26:41.975Z,57.92
2017-10-24T05:27:42.583Z,57.92
2017-10-24T05:28:43.190Z,58.01
2017-10-24T05:29:43.794Z,58.29
2017-10-24T05:30:44.400Z,58.01
2017-10-24T05:31:45.045Z,58.29
2017-10-24T05:32:45.653Z,58.48
2017-10-24T05:33:46.256Z,58.29
2017-10-24T05:34:46.862Z,58.29
2017-10-24T05:35:47.496Z,58.48
2017-10-24T05:36:48.103Z,57.82
2017-10-24T05:37:48.709Z,57.92
2017-10-24T05:38:49.352Z,57.73
2017-10-24T05:39:49.954Z,57.92
2017-10-24T05:40:50.561Z,58.01
2017-10-24T05:41:51.166Z,57.73
2017-10-24T05:42:51.781Z,58.01
2017-10-24T05:43:52.383Z,58.20
2017-10-24T05:44:52.995Z,58.01
2017-10-24T05:45:53.650Z,57.82
2017-10-24T05:46:54.254Z,57.92
2017-10-24T05:47:54.868Z,57.73
2017-10-24T05:48:55.470Z,58.48
2017-10-24T05:49:56.076Z,58.39
2017-10-24T05:50:56.718Z,58.48
2017-10-24T05:51:57.320Z,58.29
2017-10-24T05:52:57.931Z,58.39
2017-10-24T05:53:58.535Z,58.11
2017-10-24T05:54:59.142Z,58.20
2017-10-24T05:55:59.747Z,58.29
2017-10-24T05:57:00.356Z,58.29
2017-10-24T05:58:00.961Z,58.20
2017-10-24T05:59:01.583Z,58.29
2017-10-24T06:00:02.179Z,58.14
2017-10-24T06:01:02.783Z,58.39
2017-10-24T06:02:03.391Z,58.42
2017-10-24T06:03:04.007Z,58.48
2017-10-24T06:04:04.603Z,58.42
2017-10-24T06:05:05.213Z,57.95
2017-10-24T06:06:05.824Z,58.01
2017-10-24T06:07:06.434Z,58.29
2017-10-24T06:08:07.038Z,58.39
2017-10-24T06:09:07.649Z,58.51
2017-10-24T06:10:08.256Z,58.42
2017-10-24T06:11:08.909Z,58.14
2017-10-24T06:12:09.504Z,58.42
2017-10-24T06:13:10.142Z,58.51
2017-10-24T06:14:10.750Z,58.51
2017-10-24T06:15:11.364Z,58.42
2017-10-24T06:16:11.973Z,58.51
2017-10-24T06:17:12.612Z,58.42
2017-10-24T06:18:13.225Z,58.51
2017-10-24T06:19:13.868Z,58.42
2017-10-24T06:20:14.474Z,58.51
2017-10-24T06:21:15.081Z,58.61
2017-10-24T06:22:15.689Z,57.95
2017-10-24T06:23:16.295Z,57.76
2017-10-24T06:24:16.902Z,57.73
2017-10-24T06:25:17.510Z,57.76
2017-10-24T06:26:18.118Z,58.04
2017-10-24T06:27:18.731Z,57.73
2017-10-24T06:28:19.337Z,58.01
2017-10-24T06:29:19.945Z,57.76
2017-10-24T06:30:20.552Z,58.04
2017-10-24T06:31:21.161Z,58.04
2017-10-24T06:32:21.771Z,58.11
2017-10-24T06:33:22.382Z,57.92
2017-10-24T06:34:22.990Z,57.82
2017-10-24T06:35:23.598Z,57.82
2017-10-24T06:36:24.213Z,57.82
2017-10-24T06:37:24.813Z,57.76
2017-10-24T06:38:25.427Z,57.85
2017-10-24T06:39:26.066Z,58.04
2017-10-24T06:40:26.672Z,57.95
2017-10-24T06:41:27.286Z,57.47
2017-10-24T06:42:27.923Z,57.19
2017-10-24T06:43:28.533Z,57.38
2017-10-24T06:44:29.138Z,57.28
2017-10-24T06:45:29.747Z,57.57
2017-10-24T06:46:30.351Z,57.57
2017-10-24T06:47:30.960Z,57.57
2017-10-24T06:48:31.598Z,57.57
2017-10-24T06:49:32.238Z,57.38
2017-10-24T06:50:32.849Z,57.38
2017-10-24T06:51:33.455Z,57.38
2017-10-24T06:52:34.064Z,57.28
2017-10-24T06:53:34.701Z,57.66
2017-10-24T06:54:35.312Z,57.57
2017-10-24T06:55:35.950Z,57.66
2017-10-24T06:56:36.558Z,57.57
2017-10-24T06:57:37.175Z,56.90
2017-10-24T06:58:37.812Z,56.71
2017-10-24T06:59:38.420Z,57.38
2017-10-24T07:00:39.027Z,57.09
2017-10-24T07:01:39.633Z,57.09
2017-10-24T07:02:40.241Z,56.90
2017-10-24T07:03:40.854Z,56.62
2017-10-24T07:04:41.459Z,56.99
2017-10-24T07:05:42.096Z,56.62
2017-10-24T07:06:42.703Z,56.90
2017-10-24T07:07:43.310Z,56.99
2017-10-24T07:08:43.917Z,56.99
2017-10-24T07:09:44.527Z,56.81
2017-10-24T07:10:45.133Z,56.62
2017-10-24T07:11:45.741Z,56.52
2017-10-24T07:12:46.385Z,56.71
2017-10-24T07:13:46.991Z,56.81
2017-10-24T07:14:47.628Z,56.71
2017-10-24T07:15:48.272Z,56.71
2017-10-24T07:16:48.876Z,56.71
2017-10-24T07:17:49.486Z,56.71
2017-10-24T07:18:50.095Z,56.81
2017-10-24T07:19:50.740Z,57.09
2017-10-24T07:20:51.349Z,56.90
2017-10-24T07:21:51.955Z,57.19
2017-10-24T07:22:52.561Z,57.19
2017-10-24T07:23:53.169Z,57.09
2017-10-24T07:24:53.788Z,57.19
2017-10-24T07:25:54.414Z,57.19
2017-10-24T07:26:55.022Z,57.19
2017-10-24T07:27:55.631Z,57.19
2017-10-24T07:28:56.237Z,57.09
2017-10-24T07:29:56.850Z,57.19
2017-10-24T07:30:57.461Z,56.62
2017-10-24T07:31:58.071Z,56.81
2017-10-24T07:32:58.712Z,56.99
2017-10-24T07:33:59.327Z,57.09
2017-10-24T07:34:59.931Z,57.09
2017-10-24T07:36:00.539Z,56.99
2017-10-24T07:37:01.155Z,56.62
2017-10-24T07:38:01.758Z,56.99
2017-10-24T07:39:02.401Z,57.19
2017-10-24T07:40:03.005Z,56.90
2017-10-24T07:41:03.618Z,56.99
2017-10-24T07:42:04.224Z,57.19
2017-10-24T07:43:04.836Z,56.81
2017-10-24T07:44:05.447Z,57.19
2017-10-24T07:45:06.062Z,57.47
2017-10-24T07:46:06.674Z,57.38
2017-10-24T07:47:07.279Z,57.47
2017-10-24T07:48:07.890Z,58.04
2017-10-24T07:49:08.502Z,57.85
2017-10-24T07:50:09.111Z,58.04
2017-10-24T07:51:09.722Z,58.04
2017-10-24T07:52:10.334Z,58.51
2017-10-24T07:53:10.943Z,58.33
2017-10-24T07:54:11.552Z,58.42
2017-10-24T07:55:12.163Z,58.33
2017-10-24T07:56:12.775Z,58.54
2017-10-24T07:57:13.434Z,58.07
2017-10-24T07:58:14.044Z,58.45
2017-10-24T07:59:14.689Z,58.26
2017-10-24T08:00:15.296Z,58.36
2017-10-24T08:01:15.905Z,58.26
2017-10-24T08:02:16.517Z,58.20
2017-10-24T08:03:17.128Z,57.34
2017-10-24T08:04:17.750Z,57.62
2017-10-24T08:05:18.358Z,57.06
2017-10-24T08:06:18.967Z,57.15
2017-10-24T08:07:19.574Z,57.62
2017-10-24T08:08:20.192Z,57.62
2017-10-24T08:09:20.800Z,57.72
2017-10-24T08:10:21.414Z,57.34
2017-10-24T08:11:22.025Z,57.43
2017-10-24T08:12:22.685Z,57.06
2017-10-24T08:13:23.297Z,57.91
2017-10-24T08:14:23.907Z,57.15
2017-10-24T08:15:24.517Z,56.87
2017-10-24T08:16:25.128Z,57.06
2017-10-24T08:17:25.743Z,56.77
2017-10-24T08:18:26.349Z,57.06
2017-10-24T08:19:26.963Z,57.24
2017-10-24T08:20:27.574Z,57.06
2017-10-24T08:21:28.183Z,57.34
2017-10-24T08:22:28.800Z,58.00
2017-10-24T08:23:29.406Z,57.72
2017-10-24T08:24:30.018Z,57.46
2017-10-24T08:25:30.630Z,57.65
2017-10-24T08:26:31.251Z,56.89
2017-10-24T08:27:31.867Z,57.09
2017-10-24T08:28:32.474Z,57.09
2017-10-24T08:29:33.081Z,56.42
2017-10-24T08:30:33.693Z,56.32
2017-10-24T08:31:34.305Z,56.70
2017-10-24T08:32:34.916Z,56.42
2017-10-24T08:33:35.529Z,56.04
2017-10-24T08:34:36.166Z,56.13
2017-10-24T08:35:36.777Z,56.04
2017-10-24T08:36:37.400Z,55.66
2017-10-24T08:37:38.007Z,55.28
2017-10-24T08:38:38.616Z,55.40
2017-10-24T08:39:39.228Z,55.69
2017-10-24T08:40:39.839Z,55.11
2017-10-24T08:41:40.455Z,54.83
2017-10-24T08:42:41.063Z,54.93
2017-10-24T08:43:41.675Z,54.83
2017-10-24T08:44:42.284Z,55.11
2017-10-24T08:45:42.896Z,55.21
2017-10-24T08:46:43.508Z,54.93
2017-10-24T08:47:44.124Z,54.96
2017-10-24T08:48:45.225Z,54.86
2017-10-24T08:49:45.368Z,54.96
2017-10-24T08:50:45.979Z,55.15
2017-10-24T08:51:46.592Z,54.67
2017-10-24T08:52:47.208Z,54.38
2017-10-24T08:53:47.821Z,54.77
2017-10-24T08:54:48.431Z,54.86
2017-10-24T08:55:49.043Z,55.43
2017-10-24T08:56:49.655Z,55.08
2017-10-24T08:57:50.267Z,54.13
2017-10-24T08:58:50.878Z,54.41
2017-10-24T08:59:51.490Z,53.84
2017-10-24T09:00:52.107Z,54.03
2017-10-24T09:01:52.718Z,54.03
2017-10-24T09:02:53.331Z,53.36
2017-10-24T09:03:53.943Z,53.46
2017-10-24T09:04:54.554Z,52.89
2017-10-24T09:05:55.166Z,53.36
2017-10-24T09:06:55.783Z,53.17
2017-10-24T09:07:56.392Z,53.27
2017-10-24T09:08:57.004Z,53.08
2017-10-24T09:09:57.623Z,52.70
2017-10-24T09:10:58.246Z,52.41
2017-10-24T09:11:58.839Z,52.51
2017-10-24T09:12:59.452Z,52.72
2017-10-24T09:14:00.066Z,52.34
2017-10-24T09:15:00.685Z,52.44
2017-10-24T09:16:01.294Z,52.72
2017-10-24T09:17:01.911Z,51.39
2017-10-24T09:18:02.550Z,51.01
2017-10-24T09:19:03.167Z,50.73
2017-10-24T09:20:03.776Z,51.39
2017-10-24T09:21:04.390Z,51.78
2017-10-24T09:22:05.002Z,51.87
2017-10-24T09:23:05.617Z,51.78
2017-10-24T09:24:06.233Z,51.87
2017-10-24T09:25:06.849Z,51.39
2017-10-24T09:26:07.460Z,51.32
2017-10-24T09:27:08.080Z,50.37
2017-10-24T09:28:08.692Z,50.18
2017-10-24T09:29:09.310Z,49.61
2017-10-24T09:30:09.922Z,49.04
2017-10-24T09:31:10.564Z,49.04
2017-10-24T09:32:11.178Z,48.08
2017-10-24T09:33:11.792Z,48.27
2017-10-24T09:34:12.436Z,48.37
2017-10-24T09:35:13.050Z,48.47
2017-10-24T09:36:13.677Z,48.37
2017-10-24T09:37:14.283Z,47.71
2017-10-24T09:38:14.897Z,47.54
2017-10-24T09:39:15.509Z,47.25
2017-10-24T09:40:16.128Z,47.54
2017-10-24T09:41:16.741Z,47.54
2017-10-24T09:42:17.360Z,46.68
2017-10-24T09:43:17.972Z,46.68
2017-10-24T09:44:18.587Z,46.68
2017-10-24T09:45:19.200Z,46.49
2017-10-24T09:46:19.815Z,46.20
2017-10-24T09:47:20.435Z,46.01
2017-10-24T09:48:21.046Z,46.01
2017-10-24T09:49:21.661Z,45.83
2017-10-24T09:50:22.304Z,45.47
2017-10-24T09:51:22.919Z,45.18
2017-10-24T09:52:23.533Z,45.94
2017-10-24T09:53:24.149Z,44.99
2017-10-24T09:54:24.765Z,45.18
2017-10-24T09:55:25.385Z,44.89
2017-10-24T09:56:25.998Z,44.99
2017-10-24T09:57:26.613Z,45.65
2017-10-24T09:58:27.226Z,45.75
2017-10-24T09:59:27.842Z,45.78
2017-10-24T10:00:28.458Z,44.73
2017-10-24T10:01:29.074Z,44.63
2017-10-24T10:02:29.718Z,44.06
2017-10-24T10:03:30.332Z,44.06
2017-10-24T10:04:30.977Z,44.25
2017-10-24T10:05:31.594Z,44.06
2017-10-24T10:06:32.208Z,43.94
2017-10-24T10:07:32.834Z,43.46
2017-10-24T10:08:33.492Z,43.46
2017-10-24T10:09:34.107Z,43.75
2017-10-24T10:10:34.728Z,44.13
2017-10-24T10:11:35.340Z,44.44
2017-10-24T10:12:35.962Z,44.44
2017-10-24T10:13:36.580Z,44.34
2017-10-24T10:14:37.193Z,44.44
2017-10-24T10:15:37.808Z,44.25
2017-10-24T10:16:38.424Z,44.25
2017-10-24T10:17:39.041Z,44.73
2017-10-24T10:18:39.688Z,44.63
2017-10-24T10:19:40.306Z,44.65
2017-10-24T10:20:40.927Z,44.37
2017-10-24T10:21:41.541Z,44.17
2017-10-24T10:22:42.158Z,43.98
2017-10-24T10:23:42.803Z,43.98
2017-10-24T10:24:43.420Z,43.79
2017-10-24T10:25:44.041Z,43.51
2017-10-24T10:26:44.655Z,43.60
2017-10-24T10:27:45.278Z,43.22
2017-10-24T10:28:45.891Z,42.84
2017-10-24T10:29:46.508Z,43.32
2017-10-24T10:30:47.124Z,43.03
2017-10-24T10:31:47.741Z,43.13
2017-10-24T10:32:48.386Z,43.70
2017-10-24T10:33:49.008Z,43.62
2017-10-24T10:34:49.624Z,44.01
2017-10-24T10:35:50.242Z,44.10
2017-10-24T10:36:50.887Z,44.12
2017-10-24T10:37:51.535Z,43.74
2017-10-24T10:38:52.152Z,43.26
2017-10-24T10:39:52.771Z,42.97
2017-10-24T10:40:53.388Z,42.40
2017-10-24T10:41:54.006Z,41.93
2017-10-24T10:42:54.622Z,42.31
2017-10-24T10:43:55.239Z,42.50
2017-10-24T10:44:55.886Z,42.88
2017-10-24T10:45:56.505Z,42.21
2017-10-24T10:46:57.122Z,42.50
2017-10-24T10:47:57.740Z,42.61
2017-10-24T10:48:58.357Z,42.90
2017-10-24T10:49:59.009Z,42.24
2017-10-24T10:50:59.651Z,41.28
2017-10-24T10:52:00.268Z,41.66
2017-10-24T10:53:00.886Z,41.45
2017-10-24T10:54:01.537Z,41.26
2017-10-24T10:55:02.156Z,42.11
2017-10-24T10:56:02.773Z,42.04
2017-10-24T10:57:03.394Z,41.93
2017-10-24T10:58:04.009Z,42.14
2017-10-24T10:59:04.625Z,41.95
2017-10-24T11:00:05.242Z,42.04
2017-10-24T11:01:05.862Z,42.14
2017-10-24T11:02:06.480Z,42.43
2017-10-24T11:03:07.099Z,42.33
2017-10-24T11:04:07.743Z,42.24
2017-10-24T11:05:08.361Z,42.24
2017-10-24T11:06:08.985Z,41.78
2017-10-24T11:07:09.599Z,41.87
2017-10-24T11:08:10.217Z,41.97
2017-10-24T11:09:10.835Z,42.16
2017-10-24T11:10:11.452Z,41.30
2017-10-24T11:11:12.075Z,40.92
2017-10-24T11:12:12.691Z,40.52
2017-10-24T11:13:13.308Z,40.63
2017-10-24T11:14:13.926Z,41.09
2017-10-24T11:15:14.551Z,41.28
2017-10-24T11:16:15.172Z,40.89
2017-10-24T11:17:15.822Z,40.99
2017-10-24T11:18:16.442Z,41.64
2017-10-24T11:19:17.094Z,41.74
2017-10-24T11:20:17.704Z,41.55
2017-10-24T11:21:18.328Z,42.11
2017-10-24T11:22:18.945Z,41.26
2017-10-24T11:23:19.571Z,40.78
2017-10-24T11:24:20.184Z,40.40
2017-10-24T11:25:20.809Z,40.95
2017-10-24T11:26:21.425Z,41.91
2017-10-24T11:27:22.044Z,42.00
2017-10-24T11:28:22.662Z,41.83
2017-10-24T11:29:23.312Z,42.11
2017-10-24T11:30:23.932Z,42.02
2017-10-24T11:31:24.548Z,41.93
2017-10-24T11:32:25.165Z,42.11
2017-10-24T11:33:25.782Z,41.83
2017-10-24T11:34:26.402Z,40.88
2017-10-24T11:35:27.025Z,41.93
2017-10-24T11:36:27.640Z,42.02
2017-10-24T11:37:28.263Z,42.33
2017-10-24T11:38:28.883Z,41.47
2017-10-24T11:39:29.501Z,41.56
2017-10-24T11:40:30.119Z,41.66
2017-10-24T11:41:30.765Z,41.85
2017-10-24T11:42:31.385Z,41.18
2017-10-24T11:43:31.998Z,41.30
2017-10-24T11:44:32.616Z,41.97
2017-10-24T11:45:33.239Z,41.97
2017-10-24T11:46:33.853Z,41.41
2017-10-24T11:47:34.471Z,40.65
2017-10-24T11:48:35.089Z,40.55
2017-10-24T11:49:35.737Z,39.79
2017-10-24T11:50:36.354Z,39.89
2017-10-24T11:51:36.978Z,39.69
2017-10-24T11:52:37.594Z,39.50
2017-10-24T11:53:38.219Z,39.50
2017-10-24T11:54:38.834Z,39.50
2017-10-24T11:55:39.451Z,39.03
2017-10-24T11:56:40.107Z,39.03
2017-10-24T11:57:40.724Z,39.04
2017-10-24T11:58:41.353Z,38.83
2017-10-24T11:59:41.962Z,38.83
2017-10-24T12:00:42.581Z,39.03
2017-10-24T12:01:43.205Z,38.76
2017-10-24T12:02:43.822Z,38.66
2017-10-24T12:03:44.441Z,39.25
2017-10-24T12:04:45.061Z,38.59
2017-10-24T12:05:45.685Z,38.49
2017-10-24T12:06:46.299Z,38.30
2017-10-24T12:07:46.925Z,38.03
2017-10-24T12:08:47.546Z,37.92
2017-10-24T12:09:48.195Z,36.96
2017-10-24T12:10:48.820Z,36.77
2017-10-24T12:11:49.445Z,37.53
2017-10-24T12:12:50.065Z,37.84
2017-10-24T12:13:50.687Z,37.93
2017-10-24T12:14:51.308Z,37.45
2017-10-24T12:15:51.930Z,37.65
2017-10-24T12:16:52.554Z,37.65
2017-10-24T12:17:53.203Z,37.45
2017-10-24T12:18:53.824Z,36.98
2017-10-24T12:19:54.447Z,36.40
2017-10-24T12:20:55.065Z,36.29
2017-10-24T12:21:55.685Z,36.47
2017-10-24T12:22:56.306Z,37.43
2017-10-24T12:23:56.926Z,37.72
2017-10-24T12:24:57.546Z,37.24
2017-10-24T12:25:58.169Z,37.05
2017-10-24T12:26:58.819Z,37.43
2017-10-24T12:27:59.439Z,37.63
2017-10-24T12:29:00.065Z,37.43
2017-10-24T12:30:00.687Z,37.15
2017-10-24T12:31:01.304Z,36.77
2017-10-24T12:32:01.923Z,37.34
2017-10-24T12:33:02.575Z,37.72
2017-10-24T12:34:03.201Z,37.55
2017-10-24T12:35:03.819Z,37.93
2017-10-24T12:36:04.441Z,37.84
2017-10-24T12:37:05.062Z,37.18
2017-10-24T12:38:05.692Z,36.71
2017-10-24T12:39:06.309Z,36.32
2017-10-24T12:40:06.955Z,35.17
2017-10-24T12:41:07.576Z,35.25
2017-10-24T12:42:08.198Z,35.06
2017-10-24T12:43:08.823Z,35.61
2017-10-24T12:44:09.447Z,36.38
2017-10-24T12:45:10.064Z,36.69
2017-10-24T12:46:10.684Z,36.69
2017-10-24T12:47:11.304Z,36.30
2017-10-24T12:48:11.924Z,36.57
2017-10-24T12:49:12.544Z,36.30
2017-10-24T12:50:13.165Z,36.49
2017-10-24T12:51:13.785Z,36.59
2017-10-24T12:52:14.405Z,36.49
2017-10-24T12:53:15.032Z,36.59
2017-10-24T12:54:15.655Z,36.69
2017-10-24T12:55:16.274Z,36.30
2017-10-24T12:56:16.914Z,35.73
2017-10-24T12:57:17.514Z,35.53
2017-10-24T12:58:18.140Z,35.06
2017-10-24T12:59:18.754Z,35.53
2017-10-24T13:00:19.388Z,36.21